createdAt,value
2022-10-06T00:02:07.714Z,62.20
2022-10-06T00:04:53.559Z,62.20
2022-10-06T00:07:21.656Z,62.80
2022-10-06T00:09:50.104Z,62.60
2022-10-06T00:12:19.548Z,62.90
2022-10-06T00:14:47.590Z,63.30
2022-10-06T00:17:15.656Z,63.50
2022-10-06T00:19:43.736Z,63.80
2022-10-06T00:22:11.826Z,64.10
2022-10-06T00:24:39.908Z,64.40
2022-10-06T00:27:07.993Z,64.70
2022-10-06T00:29:37.392Z,64.80
2022-10-06T00:32:05.464Z,65.10
2022-10-06T00:34:33.520Z,65.10
2022-10-06T00:37:06.504Z,65.30
2022-10-06T00:39:34.575Z,65.90
2022-10-06T00:42:02.667Z,65.70
2022-10-06T00:44:30.767Z,65.80
2022-10-06T00:47:00.331Z,65.90
2022-10-06T00:49:32.249Z,66.30
2022-10-06T00:52:03.868Z,66.30
2022-10-06T00:54:33.247Z,66.40
2022-10-06T00:57:03.092Z,66.40
2022-10-06T00:59:31.208Z,66.50
2022-10-06T01:02:06.569Z,66.40
2022-10-06T01:04:37.159Z,66.70
2022-10-06T01:07:06.007Z,66.50
2022-10-06T01:09:34.842Z,66.40
2022-10-06T01:12:06.680Z,66.50
2022-10-06T01:14:36.648Z,66.40
2022-10-06T01:17:10.600Z,66.40
2022-10-06T01:19:49.185Z,66.50
2022-10-06T01:22:19.292Z,66.40
2022-10-06T01:24:52.535Z,66.00
2022-10-06T01:27:22.269Z,65.30
2022-10-06T01:29:53.803Z,64.70
2022-10-06T01:32:22.447Z,64.30
2022-10-06T01:34:50.613Z,64.10
2022-10-06T01:37:18.685Z,63.80
2022-10-06T01:39:48.193Z,63.50
2022-10-06T01:42:16.273Z,63.30
2022-10-06T01:44:44.371Z,63.20
2022-10-06T01:47:12.528Z,63.10
2022-10-06T01:49:40.609Z,62.90
2022-10-06T01:52:08.676Z,62.80
2022-10-06T01:54:37.395Z,62.70
2022-10-06T01:57:08.767Z,62.80
2022-10-06T01:59:36.839Z,62.70
2022-10-06T02:02:05.921Z,62.60
2022-10-06T02:04:34.081Z,62.50
2022-10-06T02:07:02.585Z,62.40
2022-10-06T02:09:30.663Z,62.30
2022-10-06T02:11:58.757Z,62.20
2022-10-06T02:14:28.184Z,62.10
2022-10-06T02:16:56.820Z,62.10
2022-10-06T02:19:25.232Z,62.00
2022-10-06T02:21:53.303Z,62.00
2022-10-06T02:24:21.363Z,62.00
2022-10-06T02:26:49.452Z,62.80
2022-10-06T02:29:17.652Z,62.10
2022-10-06T02:31:47.172Z,62.20
2022-10-06T02:34:15.423Z,62.30
2022-10-06T02:36:43.496Z,62.30
2022-10-06T02:39:11.959Z,62.40
2022-10-06T02:41:40.372Z,62.40
2022-10-06T02:44:08.444Z,62.40
2022-10-06T02:46:36.963Z,62.50
2022-10-06T02:49:06.464Z,62.60
2022-10-06T02:51:34.945Z,62.80
2022-10-06T02:54:03.006Z,62.90
2022-10-06T02:56:31.075Z,63.10
2022-10-06T02:58:59.263Z,63.10
2022-10-06T03:01:29.402Z,63.00
2022-10-06T03:03:57.902Z,63.00
2022-10-06T03:06:32.126Z,63.10
2022-10-06T03:09:08.713Z,63.20
2022-10-06T03:11:38.104Z,63.10
2022-10-06T03:14:07.202Z,63.00
2022-10-06T03:16:38.673Z,62.90
2022-10-06T03:19:13.108Z,62.70
2022-10-06T03:21:44.225Z,62.60
2022-10-06T03:24:12.721Z,62.70
2022-10-06T03:26:42.589Z,62.60
2022-10-06T03:29:12.119Z,62.50
2022-10-06T03:31:41.342Z,62.50
2022-10-06T03:34:09.908Z,62.50
2022-10-06T03:36:38.267Z,62.40
2022-10-06T03:39:08.085Z,62.40
2022-10-06T03:41:38.066Z,62.50
2022-10-06T03:44:06.710Z,62.50
2022-10-06T03:46:36.568Z,62.50
2022-10-06T03:49:05.217Z,62.50
2022-10-06T03:51:35.284Z,62.60
2022-10-06T03:54:03.611Z,62.50
2022-10-06T03:56:34.366Z,62.50
2022-10-06T03:59:04.886Z,62.70
2022-10-06T04:01:34.863Z,62.70
2022-10-06T04:04:03.983Z,62.70
2022-10-06T04:06:33.563Z,62.70
2022-10-06T04:09:02.546Z,62.80
2022-10-06T04:11:34.164Z,62.70
2022-10-06T04:14:03.535Z,62.70
2022-10-06T04:16:33.206Z,62.80
2022-10-06T04:19:03.225Z,62.70
2022-10-06T04:21:33.640Z,62.80
2022-10-06T04:24:01.998Z,62.80
2022-10-06T04:26:33.920Z,62.90
2022-10-06T04:29:02.106Z,63.00
2022-10-06T04:31:32.847Z,63.00
2022-10-06T04:34:02.468Z,63.20
2022-10-06T04:36:33.013Z,63.40
2022-10-06T04:39:03.164Z,63.20
2022-10-06T04:41:35.210Z,63.20
2022-10-06T04:44:05.579Z,63.50
2022-10-06T04:46:43.778Z,63.60
2022-10-06T04:49:19.096Z,63.70
2022-10-06T04:51:48.333Z,63.80
2022-10-06T04:54:16.564Z,63.80
2022-10-06T04:56:46.455Z,63.50
2022-10-06T04:59:14.541Z,63.20
2022-10-06T05:01:42.617Z,62.50
2022-10-06T05:04:10.700Z,62.50
2022-10-06T05:06:41.128Z,62.60
2022-10-06T05:09:11.315Z,62.90
2022-10-06T05:11:39.718Z,63.20
2022-10-06T05:14:09.289Z,63.40
2022-10-06T05:16:38.646Z,63.20
2022-10-06T05:19:08.203Z,63.00
2022-10-06T05:21:36.550Z,62.90
2022-10-06T05:24:05.322Z,62.80
2022-10-06T05:26:36.834Z,62.70
2022-10-06T05:29:05.775Z,62.70
2022-10-06T05:31:39.056Z,62.70
2022-10-06T05:34:07.670Z,62.60
2022-10-06T05:36:36.121Z,62.60
2022-10-06T05:39:05.081Z,62.70
2022-10-06T05:41:34.354Z,62.60
2022-10-06T05:44:02.447Z,62.50
2022-10-06T05:46:33.146Z,62.50
2022-10-06T05:49:04.683Z,62.50
2022-10-06T05:51:35.276Z,62.60
2022-10-06T05:54:04.173Z,62.50
2022-10-06T05:56:34.145Z,62.60
2022-10-06T05:59:02.811Z,62.60
2022-10-06T06:01:32.532Z,62.60
2022-10-06T06:04:03.760Z,62.60
2022-10-06T06:06:36.726Z,62.70
2022-10-06T06:09:07.985Z,62.70
2022-10-06T06:11:37.486Z,62.80
2022-10-06T06:14:07.541Z,62.90
2022-10-06T06:16:37.055Z,63.00
2022-10-06T06:19:07.733Z,63.10
2022-10-06T06:21:35.844Z,63.40
2022-10-06T06:24:04.507Z,63.20
2022-10-06T06:26:34.966Z,63.30
2022-10-06T06:29:03.949Z,63.50
2022-10-06T06:31:33.598Z,63.60
2022-10-06T06:34:02.845Z,63.80
2022-10-06T06:36:35.543Z,63.80
2022-10-06T06:39:06.777Z,63.60
2022-10-06T06:41:37.862Z,63.60
2022-10-06T06:44:06.830Z,63.40
2022-10-06T06:49:09.704Z,63.10
2022-10-06T06:51:41.664Z,62.80
2022-10-06T06:54:11.176Z,62.50
2022-10-06T06:56:39.369Z,62.20
2022-10-06T06:59:11.894Z,61.80
2022-10-06T07:01:44.649Z,61.50
2022-10-06T07:04:14.272Z,61.30
2022-10-06T07:06:46.643Z,60.90
2022-10-06T07:09:14.764Z,60.30
2022-10-06T07:11:43.854Z,60.80
2022-10-06T07:14:13.044Z,59.50
2022-10-06T07:16:58.740Z,59.20
2022-10-06T07:19:52.954Z,58.80
2022-10-06T07:22:42.873Z,58.50
2022-10-06T07:25:17.381Z,57.60
2022-10-06T07:27:51.093Z,57.30
2022-10-06T07:30:21.200Z,56.90
2022-10-06T07:32:50.779Z,56.60
2022-10-06T07:35:20.362Z,56.10
2022-10-06T07:37:50.247Z,55.80
2022-10-06T07:40:19.126Z,55.10
2022-10-06T07:42:51.969Z,54.90
2022-10-06T07:45:47.093Z,54.80
2022-10-06T07:48:18.116Z,56.20
2022-10-06T07:50:49.139Z,54.80
2022-10-06T07:53:19.645Z,54.20
2022-10-06T07:55:49.685Z,53.40
2022-10-06T07:58:19.617Z,53.40
2022-10-06T08:00:49.344Z,53.10
2022-10-06T08:03:18.880Z,52.60
2022-10-06T08:05:47.731Z,52.00
2022-10-06T08:08:16.217Z,51.60
2022-10-06T08:10:52.800Z,51.10
2022-10-06T08:13:20.927Z,50.90
2022-10-06T08:15:49.990Z,50.80
2022-10-06T08:18:40.957Z,50.80
2022-10-06T08:21:13.653Z,50.80
2022-10-06T08:23:42.740Z,50.00
2022-10-06T08:26:13.758Z,50.50
2022-10-06T08:28:45.674Z,50.00
2022-10-06T08:31:15.817Z,49.60
2022-10-06T08:33:45.089Z,49.90
2022-10-06T08:36:15.670Z,49.60
2022-10-06T08:38:45.551Z,49.00
2022-10-06T08:41:23.678Z,49.00
2022-10-06T08:44:01.087Z,48.10
2022-10-06T08:46:52.220Z,47.90
2022-10-06T08:49:23.940Z,47.60
2022-10-06T08:51:59.135Z,48.10
2022-10-06T08:54:40.012Z,46.60
2022-10-06T08:57:18.830Z,46.00
2022-10-06T08:59:50.157Z,45.70
2022-10-06T09:02:28.385Z,45.80
2022-10-06T09:04:58.221Z,44.90
2022-10-06T09:07:33.545Z,44.90
2022-10-06T09:10:20.155Z,43.70
2022-10-06T09:12:56.386Z,43.10
2022-10-06T09:15:35.048Z,43.30
2022-10-06T09:18:15.297Z,42.90
2022-10-06T09:20:51.147Z,42.50
2022-10-06T09:23:40.759Z,42.20
2022-10-06T09:26:12.782Z,42.20
2022-10-06T09:28:46.106Z,41.50
2022-10-06T09:31:22.957Z,41.70
2022-10-06T09:33:53.730Z,40.90
2022-10-06T09:36:22.352Z,41.70
2022-10-06T09:38:55.385Z,42.30
2022-10-06T09:41:28.256Z,42.70
2022-10-06T09:44:05.347Z,45.50
2022-10-06T09:46:35.232Z,43.10
2022-10-06T09:49:18.861Z,43.20
2022-10-06T09:52:12.667Z,42.30
2022-10-06T09:54:43.266Z,42.10
2022-10-06T09:57:17.580Z,41.90
2022-10-06T09:59:49.351Z,41.20
2022-10-06T10:02:29.795Z,41.30
2022-10-06T10:04:59.114Z,41.10
2022-10-06T10:07:29.472Z,41.40
2022-10-06T10:10:19.441Z,40.70
2022-10-06T10:12:53.450Z,40.10
2022-10-06T10:15:43.084Z,39.60
2022-10-06T10:18:17.080Z,39.60
2022-10-06T10:20:52.497Z,39.10
2022-10-06T10:23:30.921Z,38.30
2022-10-06T10:26:22.547Z,38.70
2022-10-06T10:29:32.764Z,38.90
2022-10-06T10:32:11.674Z,38.10
2022-10-06T10:35:06.422Z,37.80
2022-10-06T10:37:43.886Z,38.20
2022-10-06T10:40:24.507Z,37.20
2022-10-06T10:43:48.007Z,36.60
2022-10-06T10:46:27.577Z,37.00
2022-10-06T10:49:04.590Z,36.30
2022-10-06T10:51:37.400Z,36.20
2022-10-06T10:54:09.858Z,36.40
2022-10-06T10:56:38.169Z,36.30
2022-10-06T10:59:16.581Z,36.80
2022-10-06T11:01:51.226Z,35.20
2022-10-06T11:04:20.866Z,35.20
2022-10-06T11:07:02.204Z,35.50
2022-10-06T11:09:39.815Z,34.40
2022-10-06T11:12:26.725Z,34.80
2022-10-06T11:15:01.967Z,34.40
2022-10-06T11:18:12.672Z,34.50
2022-10-06T11:20:48.811Z,33.80
2022-10-06T11:23:31.337Z,33.30
2022-10-06T11:26:09.733Z,33.00
2022-10-06T11:28:44.349Z,33.00
2022-10-06T11:31:23.866Z,32.80
2022-10-06T11:33:54.263Z,32.40
2022-10-06T11:36:34.823Z,32.80
2022-10-06T11:39:09.094Z,32.00
2022-10-06T11:41:42.521Z,33.10
2022-10-06T11:44:18.082Z,32.50
2022-10-06T11:46:52.683Z,31.00
2022-10-06T11:49:52.313Z,30.70
2022-10-06T11:52:46.899Z,32.50
2022-10-06T11:55:22.134Z,32.10
2022-10-06T11:58:40.870Z,31.10
2022-10-06T12:01:03.373Z,30.70
2022-10-06T12:03:54.586Z,31.50
2022-10-06T12:06:59.923Z,30.20
2022-10-06T12:09:52.630Z,30.90
2022-10-06T12:13:05.459Z,30.50
2022-10-06T12:18:55.689Z,33.70
2022-10-06T12:21:36.627Z,30.90
2022-10-06T12:24:07.663Z,30.50
2022-10-06T12:26:55.533Z,30.70
2022-10-06T12:29:42.106Z,30.70
2022-10-06T12:32:22.152Z,30.00
2022-10-06T12:35:03.196Z,29.70
2022-10-06T12:37:42.484Z,29.70
2022-10-06T12:40:49.263Z,29.70
2022-10-06T12:43:44.990Z,30.00
2022-10-06T12:46:17.276Z,29.90
2022-10-06T12:48:56.547Z,29.70
2022-10-06T12:51:34.952Z,29.50
2022-10-06T12:54:11.669Z,29.30
2022-10-06T12:56:41.287Z,29.20
2022-10-06T12:59:21.290Z,29.40
2022-10-06T13:01:51.847Z,29.20
2022-10-06T13:04:35.608Z,29.20
2022-10-06T13:07:08.724Z,29.10
2022-10-06T13:09:37.465Z,29.30
2022-10-06T13:12:29.321Z,29.60
2022-10-06T13:15:14.720Z,29.50
2022-10-06T13:17:45.248Z,28.70
2022-10-06T13:20:28.272Z,28.90
2022-10-06T13:22:58.064Z,28.70
2022-10-06T13:25:34.369Z,28.90
2022-10-06T13:28:03.871Z,28.80
2022-10-06T13:30:38.345Z,28.90
2022-10-06T13:33:09.187Z,28.80
2022-10-06T13:35:37.732Z,28.60
2022-10-06T13:38:06.434Z,28.70
2022-10-06T13:40:50.370Z,28.70
2022-10-06T13:43:20.672Z,28.80
2022-10-06T13:45:50.229Z,28.50
2022-10-06T13:48:22.491Z,28.80
2022-10-06T13:50:53.154Z,28.60
2022-10-06T13:53:27.340Z,28.50
2022-10-06T13:56:04.165Z,28.50
2022-10-06T13:58:32.498Z,28.20
2022-10-06T14:01:05.327Z,28.60
2022-10-06T14:06:10.169Z,28.40
2022-10-06T14:08:39.245Z,28.30
2022-10-06T14:11:09.063Z,28.70
2022-10-06T14:13:51.533Z,28.80
2022-10-06T14:16:23.454Z,28.70
2022-10-06T14:21:34.290Z,28.60
2022-10-06T14:24:07.506Z,28.50
2022-10-06T14:26:38.428Z,28.80
2022-10-06T14:29:06.524Z,28.90
2022-10-06T14:31:36.269Z,28.90
2022-10-06T14:34:05.661Z,28.80
2022-10-06T14:36:36.668Z,29.00
2022-10-06T14:39:09.347Z,28.70
2022-10-06T14:41:37.460Z,28.70
2022-10-06T14:44:08.624Z,28.90
2022-10-06T14:46:38.878Z,28.70
2022-10-06T14:49:08.142Z,28.80
2022-10-06T14:51:37.578Z,29.00
2022-10-06T14:54:07.457Z,28.90
2022-10-06T14:56:38.041Z,28.90
2022-10-06T14:59:07.929Z,28.80
2022-10-06T15:01:39.991Z,29.40
2022-10-06T15:04:09.966Z,29.20
2022-10-06T15:06:56.236Z,29.10
2022-10-06T15:09:24.773Z,29.10
2022-10-06T15:11:54.979Z,29.30
2022-10-06T15:14:26.282Z,29.40
2022-10-06T15:17:00.386Z,29.30
2022-10-06T15:19:28.735Z,29.20
2022-10-06T15:21:56.890Z,29.40
2022-10-06T15:24:25.004Z,29.50
2022-10-06T15:27:10.640Z,29.50
2022-10-06T15:29:38.702Z,29.50
2022-10-06T15:32:09.859Z,29.60
2022-10-06T15:37:23.564Z,29.70
2022-10-06T15:39:52.524Z,29.90
2022-10-06T15:42:35.528Z,29.80
2022-10-06T15:45:07.455Z,29.70
2022-10-06T15:47:50.120Z,30.00
2022-10-06T15:50:19.097Z,30.20
2022-10-06T15:52:48.753Z,30.40
2022-10-06T15:55:16.982Z,30.60
2022-10-06T15:57:46.548Z,31.00
2022-10-06T16:00:15.499Z,31.20
2022-10-06T16:02:46.724Z,31.50
2022-10-06T16:05:35.230Z,31.90
2022-10-06T16:08:03.432Z,32.40
2022-10-06T16:10:31.963Z,32.90
2022-10-06T16:13:01.379Z,33.30
2022-10-06T16:15:32.147Z,33.60
2022-10-06T16:18:00.258Z,33.80
2022-10-06T16:20:30.372Z,34.10
2022-10-06T16:22:59.228Z,34.40
2022-10-06T16:25:27.416Z,34.50
2022-10-06T16:27:58.185Z,34.90
2022-10-06T16:30:27.773Z,35.20
2022-10-06T16:32:55.878Z,35.60
2022-10-06T16:35:24.210Z,36.00
2022-10-06T16:37:52.523Z,36.40
2022-10-06T16:40:24.637Z,36.80
2022-10-06T16:43:13.466Z,37.00
2022-10-06T16:45:47.448Z,38.00
2022-10-06T16:48:17.513Z,38.40
2022-10-06T16:50:45.685Z,38.20
2022-10-06T16:53:16.882Z,38.50
2022-10-06T16:55:46.637Z,38.80
2022-10-06T16:58:17.451Z,39.30
2022-10-06T17:00:47.161Z,39.60
2022-10-06T17:03:15.499Z,40.10
2022-10-06T17:05:44.772Z,40.30
2022-10-06T17:08:13.481Z,40.70
2022-10-06T17:10:41.555Z,40.90
2022-10-06T17:13:09.945Z,41.20
2022-10-06T17:15:38.256Z,41.40
2022-10-06T17:18:09.188Z,41.70
2022-10-06T17:20:37.261Z,42.10
2022-10-06T17:23:05.307Z,42.20
2022-10-06T17:25:33.866Z,42.50
2022-10-06T17:28:02.312Z,42.90
2022-10-06T17:30:30.457Z,43.00
2022-10-06T17:32:59.185Z,43.40
2022-10-06T17:35:28.638Z,43.80
2022-10-06T17:37:56.979Z,44.20
2022-10-06T17:40:26.096Z,44.20
2022-10-06T17:42:54.166Z,44.50
2022-10-06T17:45:22.910Z,44.80
2022-10-06T17:47:51.988Z,45.10
2022-10-06T17:50:20.399Z,45.30
2022-10-06T17:52:49.917Z,45.70
2022-10-06T17:55:18.420Z,45.90
2022-10-06T17:57:48.907Z,45.80
2022-10-06T18:00:17.823Z,45.90
2022-10-06T18:02:47.634Z,46.00
2022-10-06T18:05:16.047Z,46.10
2022-10-06T18:07:44.237Z,46.30
2022-10-06T18:10:30.946Z,46.70
2022-10-06T18:12:59.474Z,47.10
2022-10-06T18:15:28.086Z,47.10
2022-10-06T18:17:56.163Z,47.30
2022-10-06T18:20:29.899Z,47.40
2022-10-06T18:22:57.952Z,47.50
2022-10-06T18:25:28.097Z,47.70
2022-10-06T18:27:56.497Z,48.00
2022-10-06T18:30:29.272Z,47.90
2022-10-06T18:38:43.174Z,48.70
2022-10-06T18:41:15.873Z,48.30
2022-10-06T18:43:44.191Z,48.60
2022-10-06T18:46:31.851Z,48.50
2022-10-06T18:49:05.539Z,48.90
2022-10-06T18:51:36.016Z,49.10
2022-10-06T18:54:06.660Z,49.10
2022-10-06T18:56:38.325Z,49.40
2022-10-06T18:59:10.389Z,49.90
2022-10-06T19:01:41.219Z,50.10
2022-10-06T19:04:10.916Z,50.40
2022-10-06T19:06:42.450Z,50.40
2022-10-06T19:09:17.458Z,50.60
2022-10-06T19:11:58.072Z,50.70
2022-10-06T19:14:27.729Z,50.70
2022-10-06T19:16:58.979Z,50.70
2022-10-06T19:19:28.802Z,50.90
2022-10-06T19:21:59.758Z,51.00
2022-10-06T19:24:29.646Z,51.30
2022-10-06T19:26:59.542Z,51.50
2022-10-06T19:29:27.913Z,51.50
2022-10-06T19:31:59.514Z,51.30
2022-10-06T19:34:27.795Z,51.60
2022-10-06T19:36:57.998Z,51.70
2022-10-06T19:39:27.906Z,52.00
2022-10-06T19:42:13.316Z,52.30
2022-10-06T19:44:43.351Z,52.20
2022-10-06T19:47:14.650Z,52.60
2022-10-06T19:49:43.461Z,52.90
2022-10-06T19:52:13.008Z,52.70
2022-10-06T19:54:41.981Z,52.90
2022-10-06T19:57:11.488Z,53.10
2022-10-06T19:59:42.511Z,53.10
2022-10-06T20:02:13.988Z,53.40
2022-10-06T20:04:42.079Z,53.60
2022-10-06T20:07:10.572Z,53.60
2022-10-06T20:09:38.678Z,53.80
2022-10-06T20:12:07.617Z,53.90
2022-10-06T20:14:36.345Z,53.90
2022-10-06T20:17:06.046Z,54.00
2022-10-06T20:19:35.275Z,54.30
2022-10-06T20:22:04.247Z,54.10
2022-10-06T20:24:35.819Z,54.30
2022-10-06T20:27:03.875Z,54.90
2022-10-06T20:29:32.508Z,54.50
2022-10-06T20:32:00.599Z,54.40
2022-10-06T20:34:32.163Z,54.50
2022-10-06T20:37:02.280Z,54.80
2022-10-06T20:39:49.205Z,54.70
2022-10-06T20:42:17.668Z,54.80
2022-10-06T20:44:45.794Z,54.70
2022-10-06T20:47:14.492Z,54.80
2022-10-06T20:49:44.008Z,54.80
2022-10-06T20:52:14.564Z,54.90
2022-10-06T20:54:44.115Z,54.90
2022-10-06T20:57:13.583Z,54.90
2022-10-06T20:59:43.376Z,55.20
2022-10-06T21:02:14.715Z,55.10
2022-10-06T21:04:45.137Z,55.40
2022-10-06T21:07:13.305Z,55.30
2022-10-06T21:09:42.300Z,55.30
2022-10-06T21:12:10.404Z,55.40
2022-10-06T21:14:42.124Z,55.40
2022-10-06T21:17:10.380Z,55.60
2022-10-06T21:19:38.428Z,55.70
2022-10-06T21:22:07.932Z,56.10
2022-10-06T21:24:35.985Z,56.40
2022-10-06T21:27:04.258Z,56.40
2022-10-06T21:29:35.526Z,56.70
2022-10-06T21:32:03.589Z,56.90
2022-10-06T21:34:32.374Z,56.90
2022-10-06T21:37:00.441Z,56.90
2022-10-06T21:39:30.036Z,56.90
2022-10-06T21:41:58.166Z,57.00
2022-10-06T21:44:26.658Z,57.00
2022-10-06T21:46:56.351Z,57.10
2022-10-06T21:49:25.887Z,57.20
2022-10-06T21:51:55.464Z,57.20
2022-10-06T21:54:24.490Z,57.30
2022-10-06T21:56:53.964Z,57.30
2022-10-06T21:59:22.206Z,57.50
2022-10-06T22:01:50.823Z,57.60
2022-10-06T22:04:35.507Z,57.60
2022-10-06T22:07:03.666Z,58.40
2022-10-06T22:09:31.953Z,57.40
2022-10-06T22:12:02.630Z,57.60
2022-10-06T22:14:45.990Z,58.10
2022-10-06T22:17:14.087Z,58.20
2022-10-06T22:19:42.178Z,57.90
2022-10-06T22:22:10.254Z,58.00
2022-10-06T22:24:57.818Z,57.90
2022-10-06T22:27:27.296Z,58.80
2022-10-06T22:29:55.368Z,58.20
2022-10-06T22:32:24.189Z,58.00
2022-10-06T22:34:52.235Z,58.10
2022-10-06T22:37:20.317Z,58.00
2022-10-06T22:39:48.493Z,58.00
2022-10-06T22:42:16.566Z,58.00
2022-10-06T22:44:56.306Z,58.20
2022-10-06T22:47:28.707Z,59.10
2022-10-06T22:49:56.760Z,58.50
2022-10-06T22:52:24.883Z,58.40
2022-10-06T22:54:52.974Z,58.60
2022-10-06T22:57:21.374Z,58.90
2022-10-06T22:59:49.473Z,59.00
2022-10-06T23:02:24.725Z,58.80
2022-10-06T23:04:52.825Z,58.60
2022-10-06T23:07:21.138Z,58.30
2022-10-06T23:09:49.218Z,58.30
2022-10-06T23:12:17.242Z,58.40
2022-10-06T23:14:46.056Z,58.50
2022-10-06T23:17:14.199Z,58.70
2022-10-06T23:19:43.676Z,59.00
2022-10-06T23:22:11.986Z,59.20
2022-10-06T23:24:40.081Z,59.30
2022-10-06T23:27:08.166Z,59.50
2022-10-06T23:29:36.344Z,59.50
2022-10-06T23:32:04.497Z,59.30
2022-10-06T23:34:32.587Z,59.50
2022-10-06T23:37:02.037Z,59.50
2022-10-06T23:39:30.282Z,59.50
2022-10-06T23:41:58.394Z,59.30
2022-10-06T23:44:33.582Z,59.50
2022-10-06T23:47:01.670Z,59.70
2022-10-06T23:49:33.463Z,59.80
2022-10-06T23:52:03.261Z,60.00
2022-10-06T23:54:31.567Z,59.60
2022-10-06T23:56:59.623Z,59.30
2022-10-06T23:59:28.329Z,59.30
